Time;durP1;ratioP1;P1;durP2;ratioP2;P2;SDS_P1;SDS_P2;PMS_P1;PMS_P2;Temp;Humidity;BMP_temperature;BMP_pressure;BME280_temperature;BME280_humidity;BME280_pressure;Samples;Min_cycle;Max_cycle;Signal;HPM_P1;HPM_P2
2022/12/09 00:00:40;;;;;;;28.10;15.63;;;1.10;99.90;;;;;;5095026;28;20517;-77
2022/12/09 00:03:06;;;;;;;32.08;16.92;;;0.40;99.90;;;;;;5092956;28;20169;-77
2022/12/09 00:05:31;;;;;;;30.02;15.68;;;0.00;99.90;;;;;;5091570;28;20035;-76
2022/12/09 00:07:57;;;;;;;33.45;16.33;;;0.00;99.90;;;;;;5093360;28;20040;-77
2022/12/09 00:10:23;;;;;;;29.10;14.30;;;0.10;99.90;;;;;;5080523;28;20039;-77
2022/12/09 00:12:53;;;;;;;28.52;14.68;;;-0.20;99.90;;;;;;5065866;28;20039;-77
2022/12/09 00:15:19;;;;;;;29.42;14.73;;;0.00;99.90;;;;;;5102247;28;20079;-77
2022/12/09 00:17:44;;;;;;;28.55;14.93;;;0.00;99.90;;;;;;5106973;28;20477;-77
2022/12/09 00:20:11;;;;;;;33.10;15.38;;;0.00;99.90;;;;;;5075662;28;20066;-76
2022/12/09 00:22:36;;;;;;;32.90;14.98;;;0.00;99.90;;;;;;5093780;28;20122;-77
2022/12/09 00:25:02;;;;;;;36.70;15.75;;;0.00;99.90;;;;;;5096034;28;20111;-77
2022/12/09 00:27:28;;;;;;;32.70;15.00;;;0.00;99.90;;;;;;5097336;28;20115;-77
2022/12/09 00:29:55;;;;;;;32.97;16.02;;;-0.10;99.90;;;;;;5102305;27;20052;-78
2022/12/09 00:32:21;;;;;;;26.05;14.05;;;-0.10;99.90;;;;;;5097087;28;20517;-77
2022/12/09 00:34:47;;;;;;;30.38;15.65;;;-0.10;99.90;;;;;;5091880;28;20043;-75
2022/12/09 00:37:13;;;;;;;29.08;15.63;;;-0.10;99.90;;;;;;5090584;28;20568;-77
2022/12/09 00:39:39;;;;;;;31.77;15.63;;;-0.10;99.90;;;;;;5089024;28;20130;-76
2022/12/09 00:42:04;;;;;;;28.48;15.85;;;-0.10;99.90;;;;;;5075955;28;20101;-76
2022/12/09 00:44:30;;;;;;;34.75;16.05;;;-0.10;99.90;;;;;;5080826;28;20040;-77
2022/12/09 00:46:56;;;;;;;29.50;14.68;;;-0.10;99.90;;;;;;5090779;28;20036;-76
2022/12/09 00:49:22;;;;;;;34.55;16.08;;;-0.10;99.90;;;;;;5065941;28;20032;-76
2022/12/09 00:51:47;;;;;;;29.38;15.38;;;0.00;99.90;;;;;;5098723;28;20039;-77
2022/12/09 00:54:13;;;;;;;35.88;15.95;;;0.20;99.90;;;;;;5064173;28;20467;-77
2022/12/09 00:56:39;;;;;;;31.58;15.82;;;0.00;99.90;;;;;;5091179;28;20236;-77
2022/12/09 00:59:04;;;;;;;31.00;14.48;;;0.00;99.90;;;;;;5059785;28;20032;-76
2022/12/09 01:01:31;;;;;;;30.92;15.02;;;0.50;99.90;;;;;;5097949;28;20113;-77
2022/12/09 01:03:57;;;;;;;26.65;13.55;;;0.80;99.90;;;;;;5080130;28;20040;-76
2022/12/09 01:06:24;;;;;;;28.35;14.43;;;0.80;99.90;;;;;;5073501;28;20063;-76
2022/12/09 01:08:51;;;;;;;31.40;15.40;;;0.10;99.90;;;;;;5089260;28;20051;-76
2022/12/09 01:11:25;;;;;;;31.63;14.52;;;0.10;99.90;;;;;;5073726;28;20040;-76
2022/12/09 01:13:52;;;;;;;26.55;13.98;;;0.10;99.90;;;;;;5073023;28;20493;-76
2022/12/09 01:16:20;;;;;;;29.95;14.30;;;0.80;99.90;;;;;;5093943;28;20043;-76
2022/12/09 01:18:47;;;;;;;32.88;14.48;;;0.60;99.90;;;;;;5106016;28;20059;-76
2022/12/09 01:21:13;;;;;;;26.50;13.20;;;0.10;99.90;;;;;;5108292;28;20096;-76
2022/12/09 01:23:39;;;;;;;30.38;13.40;;;0.10;99.90;;;;;;5088880;28;20409;-76
2022/12/09 01:26:08;;;;;;;29.60;13.48;;;0.10;99.90;;;;;;5072880;28;20032;-76
2022/12/09 01:28:36;;;;;;;25.95;12.95;;;0.10;99.90;;;;;;5075125;28;20032;-77
2022/12/09 01:31:06;;;;;;;29.70;12.82;;;0.10;99.90;;;;;;5074411;28;20032;-77
2022/12/09 01:33:32;;;;;;;24.23;12.25;;;1.00;99.90;;;;;;5078839;28;20063;-76
2022/12/09 01:35:58;;;;;;;27.10;13.93;;;0.60;99.90;;;;;;5084455;28;20048;-76
2022/12/09 01:38:25;;;;;;;28.13;12.30;;;0.20;99.90;;;;;;5067873;28;20049;-76
2022/12/09 01:40:51;;;;;;;26.15;12.85;;;0.20;99.90;;;;;;5108424;28;20035;-75
2022/12/09 01:43:18;;;;;;;27.85;12.82;;;0.30;99.90;;;;;;5077875;28;20032;-76
2022/12/09 01:45:44;;;;;;;27.95;12.20;;;0.30;99.90;;;;;;5089103;28;20486;-76
2022/12/09 01:48:13;;;;;;;27.23;13.30;;;0.40;99.90;;;;;;5059639;28;20051;-76
2022/12/09 01:51:04;;;;;;;26.02;13.02;;;0.40;99.90;;;;;;5091739;28;20116;-76
2022/12/09 01:53:34;;;;;;;25.52;12.40;;;0.40;99.90;;;;;;5077321;28;20039;-76
2022/12/09 01:56:05;;;;;;;28.13;12.70;;;0.50;99.90;;;;;;5072323;28;20058;-77
2022/12/09 01:58:31;;;;;;;29.10;13.38;;;0.40;99.90;;;;;;5089191;28;20051;-77
2022/12/09 02:00:57;;;;;;;30.42;13.52;;;0.40;99.90;;;;;;5085610;28;21184;-77
2022/12/09 02:03:22;;;;;;;27.88;12.95;;;0.40;99.90;;;;;;5108664;28;20165;-76
2022/12/09 02:05:48;;;;;;;27.23;13.35;;;0.90;99.90;;;;;;5089851;28;20515;-76
2022/12/09 02:08:17;;;;;;;26.48;12.93;;;1.50;99.90;;;;;;5104591;28;20047;-76
2022/12/09 02:11:14;;;;;;;24.60;12.10;;;0.50;99.90;;;;;;5083157;28;20059;-76
2022/12/09 02:14:02;;;;;;;29.35;13.23;;;-1.60;99.90;;;;;;5072306;28;20067;-76
2022/12/09 02:16:35;;;;;;;28.25;12.68;;;0.40;99.90;;;;;;5107063;28;20126;-76
2022/12/09 02:19:14;;;;;;;25.33;12.95;;;0.50;99.90;;;;;;5110204;28;20058;-76
2022/12/09 02:21:57;;;;;;;28.85;13.10;;;1.60;99.90;;;;;;5096958;28;20040;-76
2022/12/09 02:25:03;;;;;;;25.80;12.25;;;0.40;99.90;;;;;;5095544;28;20051;-77
2022/12/09 02:27:43;;;;;;;23.30;11.70;;;0.80;99.90;;;;;;5086523;28;20089;-76
2022/12/09 02:30:21;;;;;;;28.38;12.50;;;0.40;99.90;;;;;;5097142;28;20051;-77
2022/12/09 02:33:12;;;;;;;25.13;12.80;;;0.40;99.90;;;;;;5074211;28;20109;-76
2022/12/09 02:35:52;;;;;;;29.15;12.50;;;0.40;99.90;;;;;;5086009;28;20052;-76
2022/12/09 02:38:27;;;;;;;26.75;12.70;;;0.40;99.90;;;;;;5094153;28;20149;-76
2022/12/09 02:41:22;;;;;;;27.55;12.55;;;0.70;99.90;;;;;;5071154;28;20470;-77
2022/12/09 02:43:53;;;;;;;29.42;13.07;;;0.40;99.90;;;;;;5090336;28;20530;-77
2022/12/09 02:46:23;;;;;;;28.10;12.88;;;0.30;99.90;;;;;;5091697;28;20047;-76
2022/12/09 02:48:54;;;;;;;30.67;13.52;;;0.40;99.90;;;;;;5077145;28;20054;-77
2022/12/09 02:51:21;;;;;;;28.48;12.85;;;0.70;99.90;;;;;;5070585;28;20506;-77
2022/12/09 02:53:54;;;;;;;26.65;12.80;;;0.90;99.90;;;;;;5080517;28;20114;-76
2022/12/09 02:56:20;;;;;;;26.40;13.00;;;0.40;99.90;;;;;;5085826;28;20101;-76
2022/12/09 02:58:48;;;;;;;25.10;12.55;;;1.70;99.90;;;;;;5087661;28;20422;-76
2022/12/09 03:01:44;;;;;;;25.02;12.02;;;0.30;99.90;;;;;;5096480;28;20059;-76
2022/12/09 03:04:19;;;;;;;26.50;12.43;;;0.30;99.90;;;;;;5086481;28;20083;-77
2022/12/09 03:06:53;;;;;;;26.70;12.38;;;0.30;99.90;;;;;;5079466;28;20056;-76
2022/12/09 03:09:27;;;;;;;28.00;13.38;;;0.40;99.90;;;;;;5073041;28;20040;-76
2022/12/09 03:11:58;;;;;;;30.45;13.88;;;0.30;99.90;;;;;;5099578;28;20039;-78
2022/12/09 03:14:36;;;;;;;30.30;13.07;;;1.20;99.90;;;;;;5101088;28;20500;-77
2022/12/09 03:17:12;;;;;;;27.08;12.48;;;0.30;99.90;;;;;;5070335;28;20372;-76
2022/12/09 03:20:05;;;;;;;28.42;11.75;;;0.30;99.90;;;;;;5088675;28;20051;-76
2022/12/09 03:22:34;;;;;;;25.92;12.52;;;0.30;99.90;;;;;;5101049;28;20036;-75
2022/12/09 03:25:20;;;;;;;29.63;13.23;;;0.30;99.90;;;;;;5098834;28;20044;-77
2022/12/09 03:27:55;;;;;;;26.65;11.82;;;0.30;99.90;;;;;;5098432;28;20032;-77
2022/12/09 03:30:20;;;;;;;27.88;12.73;;;0.30;99.90;;;;;;5084665;28;20044;-77
2022/12/09 03:32:47;;;;;;;28.85;12.85;;;0.30;99.90;;;;;;5061762;28;20056;-76
2022/12/09 03:35:22;;;;;;;24.85;12.52;;;0.20;99.90;;;;;;5088413;28;20092;-77
2022/12/09 03:37:49;;;;;;;29.10;13.18;;;0.20;99.90;;;;;;5096915;28;20067;-77
2022/12/09 03:40:22;;;;;;;25.42;11.98;;;0.20;99.90;;;;;;5077370;28;20043;-75
2022/12/09 03:42:51;;;;;;;;;;;0.20;99.90;;;;;;5104405;28;20126;-76
2022/12/09 03:45:18;;;;;;;28.55;12.77;;;0.10;99.90;;;;;;5092027;28;20063;-76
2022/12/09 03:47:44;;;;;;;28.13;13.27;;;0.10;99.90;;;;;;5080046;28;20549;-75
2022/12/09 03:50:11;;;;;;;27.15;13.00;;;0.00;99.90;;;;;;5091766;28;20082;-76
2022/12/09 03:52:40;;;;;;;24.63;12.82;;;0.00;99.90;;;;;;5099326;28;20055;-76
2022/12/09 03:55:43;;;;;;;27.70;11.98;;;-0.10;99.90;;;;;;5091394;28;20043;-76
2022/12/09 03:58:12;;;;;;;25.50;11.95;;;0.00;99.90;;;;;;5046714;28;20063;-76
2022/12/09 04:00:38;;;;;;;26.73;12.48;;;-0.10;99.90;;;;;;5097503;28;20121;-76
2022/12/09 04:03:10;;;;;;;25.60;12.98;;;-0.10;99.90;;;;;;5062607;28;20080;-76
2022/12/09 04:05:41;;;;;;;24.92;12.15;;;-0.20;99.90;;;;;;5091855;28;20048;-77
2022/12/09 04:08:08;;;;;;;24.55;12.07;;;-0.10;99.90;;;;;;5087669;28;20040;-76
2022/12/09 04:10:34;;;;;;;26.00;11.93;;;-0.10;99.90;;;;;;5093952;28;20036;-77
2022/12/09 04:12:59;;;;;;;25.13;12.77;;;-0.10;99.90;;;;;;5091402;28;20096;-76
2022/12/09 04:15:25;;;;;;;25.98;12.13;;;-0.40;99.90;;;;;;5074787;28;20036;-77
2022/12/09 04:17:51;;;;;;;26.80;12.48;;;-0.10;99.90;;;;;;5085579;28;20627;-76
2022/12/09 04:20:17;;;;;;;27.05;12.48;;;-0.10;99.90;;;;;;5104445;28;20416;-76
2022/12/09 04:22:42;;;;;;;27.27;12.27;;;-0.10;99.90;;;;;;5074286;28;20127;-75
2022/12/09 04:25:08;;;;;;;26.55;12.38;;;0.80;99.90;;;;;;5074207;28;20036;-76
2022/12/09 04:27:34;;;;;;;25.95;11.85;;;-0.10;99.90;;;;;;5073769;28;20044;-76
2022/12/09 04:30:00;;;;;;;27.60;13.00;;;-0.10;99.90;;;;;;5101640;28;20040;-76
2022/12/09 04:32:28;;;;;;;25.48;12.75;;;0.50;99.90;;;;;;5107135;28;20059;-75
2022/12/09 04:34:54;;;;;;;27.92;12.35;;;-0.10;99.90;;;;;;5094133;28;20044;-76
2022/12/09 04:37:20;;;;;;;28.02;13.10;;;-0.10;99.90;;;;;;5065368;28;20040;-77
2022/12/09 04:39:45;;;;;;;26.42;11.73;;;-0.10;99.90;;;;;;5091219;28;20044;-76
2022/12/09 04:42:11;;;;;;;25.30;12.80;;;0.10;99.90;;;;;;5079372;28;20052;-77
2022/12/09 04:44:39;;;;;;;28.08;12.95;;;0.50;99.90;;;;;;5093229;28;20051;-75
2022/12/09 04:47:07;;;;;;;27.95;13.40;;;-0.10;99.90;;;;;;5061308;28;20119;-77
2022/12/09 04:49:36;;;;;;;26.70;11.57;;;-0.10;99.90;;;;;;5077618;28;20617;-76
2022/12/09 04:52:02;;;;;;;26.00;12.32;;;-0.10;99.90;;;;;;5088625;28;20115;-76
2022/12/09 04:54:28;;;;;;;28.98;13.18;;;-0.10;99.90;;;;;;5088862;28;20039;-75
2022/12/09 04:56:53;;;;;;;26.85;12.30;;;0.40;99.90;;;;;;5088217;28;20036;-76
2022/12/09 04:59:19;;;;;;;24.63;11.75;;;-0.10;99.90;;;;;;5068971;28;20096;-75
2022/12/09 05:01:45;;;;;;;24.83;11.82;;;-0.10;99.90;;;;;;5061815;28;20055;-78
2022/12/09 05:04:13;;;;;;;25.85;12.73;;;-0.70;99.90;;;;;;5059598;28;20481;-77
2022/12/09 05:06:39;;;;;;;25.25;11.85;;;-0.10;99.90;;;;;;5097984;28;20039;-75
2022/12/09 05:09:10;;;;;;;26.75;12.68;;;-0.10;99.90;;;;;;5109212;28;20067;-75
2022/12/09 05:11:35;;;;;;;25.65;11.68;;;-0.20;99.90;;;;;;5100320;28;20042;-77
2022/12/09 05:14:01;;;;;;;26.33;12.27;;;-0.20;99.90;;;;;;5073881;28;20412;-76
2022/12/09 05:16:27;;;;;;;26.10;12.60;;;0.80;99.90;;;;;;5057827;28;20036;-76
2022/12/09 05:18:53;;;;;;;24.05;11.88;;;-0.30;99.90;;;;;;5072960;28;20067;-77
2022/12/09 05:21:20;;;;;;;28.00;12.27;;;-0.30;99.90;;;;;;5090408;28;20087;-76
2022/12/09 05:23:46;;;;;;;24.33;11.45;;;-0.30;99.90;;;;;;5072191;28;20047;-75
2022/12/09 05:26:14;;;;;;;25.27;11.75;;;-0.40;99.90;;;;;;5106001;28;20473;-77
2022/12/09 05:28:40;;;;;;;24.88;12.18;;;-0.40;99.90;;;;;;5090484;28;20593;-77
2022/12/09 05:31:13;;;;;;;25.17;11.90;;;0.30;99.90;;;;;;5085439;28;20043;-75
2022/12/09 05:33:43;;;;;;;24.23;11.95;;;-0.40;99.90;;;;;;5106140;28;20138;-76
2022/12/09 05:36:17;;;;;;;26.88;12.90;;;-0.40;99.90;;;;;;5087017;28;20046;-76
2022/12/09 05:38:42;;;;;;;24.02;11.90;;;-0.40;99.90;;;;;;5072413;28;20097;-76
2022/12/09 05:41:08;;;;;;;25.35;12.43;;;-0.50;99.90;;;;;;5088198;28;20047;-76
2022/12/09 05:43:35;;;;;;;25.42;13.13;;;0.30;99.90;;;;;;5088046;28;20051;-76
2022/12/09 05:46:02;;;;;;;25.08;11.75;;;-0.40;99.90;;;;;;5072828;28;20111;-76
2022/12/09 05:48:29;;;;;;;26.20;12.57;;;-0.40;99.90;;;;;;5096809;28;20126;-76
2022/12/09 05:51:00;;;;;;;25.25;12.48;;;-0.40;99.90;;;;;;5109139;28;20054;-76
2022/12/09 05:53:28;;;;;;;28.25;13.73;;;-0.40;99.90;;;;;;5095114;28;20290;-76
2022/12/09 05:55:54;;;;;;;26.45;13.13;;;-0.40;99.90;;;;;;5100480;28;20048;-77
2022/12/09 05:58:20;;;;;;;29.13;13.02;;;0.40;99.90;;;;;;5075731;28;20377;-77
2022/12/09 06:00:46;;;;;;;26.38;12.63;;;-0.40;99.90;;;;;;5084429;28;20060;-77
2022/12/09 06:03:12;;;;;;;30.05;13.02;;;-0.40;99.90;;;;;;5088236;28;20036;-76
2022/12/09 06:05:38;;;;;;;28.10;13.70;;;0.30;99.90;;;;;;5079009;28;20043;-75
2022/12/09 06:08:04;;;;;;;25.27;13.38;;;0.40;99.90;;;;;;5090089;28;20093;-76
2022/12/09 06:10:30;;;;;;;28.55;13.50;;;0.00;99.90;;;;;;5072316;28;20040;-76
2022/12/09 06:12:56;;;;;;;27.83;12.50;;;0.80;99.90;;;;;;5071911;28;20040;-76
2022/12/09 06:15:25;;;;;;;31.75;13.52;;;0.50;99.90;;;;;;5087943;28;20126;-76
2022/12/09 06:17:51;;;;;;;29.27;14.32;;;-0.40;99.90;;;;;;5096140;28;20520;-76
2022/12/09 06:20:17;;;;;;;28.75;13.63;;;-0.40;99.90;;;;;;5083508;28;20115;-77
2022/12/09 06:22:43;;;;;;;28.15;13.45;;;1.60;99.90;;;;;;5088383;28;20043;-76
2022/12/09 06:25:09;;;;;;;29.08;13.48;;;-0.60;99.90;;;;;;5088180;28;20405;-76
2022/12/09 06:27:35;;;;;;;26.38;12.95;;;-0.50;99.90;;;;;;5066724;28;20036;-76
2022/12/09 06:30:01;;;;;;;29.13;14.13;;;-0.50;99.90;;;;;;5096201;28;20039;-77
2022/12/09 06:32:29;;;;;;;28.38;13.35;;;-0.50;99.90;;;;;;5070675;28;20059;-76
2022/12/09 06:34:54;;;;;;;26.60;13.93;;;0.20;99.90;;;;;;5096152;28;20109;-76
2022/12/09 06:37:20;;;;;;;32.35;14.07;;;;;;;;;;5082241;28;20589;-76
2022/12/09 06:39:46;;;;;;;29.10;14.13;;;-0.50;99.90;;;;;;5077093;28;20536;-75
2022/12/09 06:42:12;;;;;;;28.15;13.18;;;-0.50;99.90;;;;;;5100982;28;20047;-76
2022/12/09 06:44:41;;;;;;;30.95;14.57;;;1.20;99.90;;;;;;5085490;28;20126;-75
2022/12/09 06:47:07;;;;;;;29.38;15.05;;;-0.40;99.90;;;;;;5087839;28;20111;-76
2022/12/09 06:49:32;;;;;;;31.38;15.23;;;-0.40;99.90;;;;;;5097184;28;20028;-75
2022/12/09 06:51:58;;;;;;;31.95;14.55;;;-0.40;99.90;;;;;;5083166;28;20054;-76
2022/12/09 06:54:24;;;;;;;30.45;14.43;;;-0.40;99.90;;;;;;5076569;28;20036;-76
2022/12/09 06:56:50;;;;;;;27.00;14.32;;;-0.40;99.90;;;;;;5081571;28;20063;-76
2022/12/09 06:59:16;;;;;;;30.75;14.80;;;-0.40;99.90;;;;;;5100149;28;20058;-78
2022/12/09 07:01:42;;;;;;;31.85;14.57;;;-0.40;99.90;;;;;;5102560;28;20031;-76
2022/12/09 07:04:13;;;;;;;34.45;16.35;;;-0.40;99.90;;;;;;5088425;28;20044;-77
2022/12/09 07:06:41;;;;;;;31.17;15.25;;;-0.50;99.90;;;;;;5088392;28;20047;-76
2022/12/09 07:09:12;;;;;;;34.15;15.32;;;-0.50;99.90;;;;;;5076356;28;20122;-76
2022/12/09 07:11:39;;;;;;;32.25;15.30;;;-0.40;99.90;;;;;;5088192;28;20040;-76
2022/12/09 07:14:05;;;;;;;32.10;15.57;;;-0.40;99.90;;;;;;5073112;28;20092;-77
2022/12/09 07:16:30;;;;;;;32.85;16.00;;;1.40;99.90;;;;;;5094495;28;20108;-77
2022/12/09 07:18:56;;;;;;;31.83;15.63;;;0.10;99.90;;;;;;5092535;28;20523;-76
2022/12/09 07:21:23;;;;;;;33.95;15.93;;;-0.50;99.90;;;;;;5098012;28;20058;-77
2022/12/09 07:23:49;;;;;;;34.13;16.35;;;-0.50;99.90;;;;;;5092147;28;20054;-76
2022/12/09 07:26:16;;;;;;;31.90;15.02;;;-0.50;99.90;;;;;;5093966;28;20032;-76
2022/12/09 07:28:43;;;;;;;36.00;16.58;;;-0.50;99.90;;;;;;5092131;28;20613;-82
2022/12/09 07:31:28;;;;;;;30.70;15.30;;;-0.50;99.90;;;;;;5104312;28;20528;-83
2022/12/09 07:33:56;;;;;;;30.52;15.05;;;-0.60;99.90;;;;;;5097255;28;20127;-81
2022/12/09 07:36:24;;;;;;;33.00;15.73;;;-0.60;99.90;;;;;;5107428;28;20173;-81
2022/12/09 07:39:17;;;;;;;32.05;16.42;;;-0.60;99.90;;;;;;5076589;28;20067;-83
2022/12/09 07:41:43;;;;;;;30.85;15.30;;;-0.30;99.90;;;;;;5091657;28;20127;-81
2022/12/09 07:44:10;;;;;;;32.00;15.65;;;-0.60;99.90;;;;;;5074183;28;20498;-80
2022/12/09 07:46:36;;;;;;;32.03;15.60;;;-0.60;99.90;;;;;;5093866;28;20035;-83
2022/12/09 07:49:03;;;;;;;33.25;16.58;;;-0.60;99.90;;;;;;5092597;28;20043;-82
2022/12/09 07:51:34;;;;;;;31.83;15.38;;;-0.50;99.90;;;;;;5075448;28;20039;-81
2022/12/09 07:54:03;;;;;;;34.40;16.02;;;-0.60;99.90;;;;;;5092356;28;20478;-82
2022/12/09 07:56:29;;;;;;;34.00;16.05;;;-0.50;99.90;;;;;;5099627;28;20515;-82
2022/12/09 07:58:55;;;;;;;35.30;17.08;;;-0.50;99.90;;;;;;5082427;28;20040;-81
2022/12/09 08:01:27;;;;;;;33.70;16.17;;;-0.50;99.90;;;;;;5079471;28;20248;-81
2022/12/09 08:03:53;;;;;;;33.60;16.20;;;-1.50;99.90;;;;;;5094171;28;20040;-82
2022/12/09 08:06:21;;;;;;;35.65;17.30;;;-0.50;99.90;;;;;;5079332;28;20097;-82
2022/12/09 08:08:50;;;;;;;35.22;17.42;;;-0.40;99.90;;;;;;5074305;28;20074;-82
2022/12/09 08:11:21;;;;;;;33.25;15.98;;;0.40;99.90;;;;;;5083040;28;20038;-82
2022/12/09 08:13:47;;;;;;;32.35;16.90;;;-0.40;99.90;;;;;;5072275;28;20187;-82
2022/12/09 08:16:17;;;;;;;34.83;16.55;;;-0.30;99.90;;;;;;5086902;28;20036;-82
2022/12/09 08:18:43;;;;;;;32.13;16.25;;;-0.30;99.90;;;;;;5090588;28;20044;-81
2022/12/09 08:21:20;;;;;;;37.30;16.52;;;-0.30;99.90;;;;;;5088640;28;20042;-82
2022/12/09 08:23:49;;;;;;;36.45;16.67;;;-0.20;99.90;;;;;;5094699;28;20039;-82
2022/12/09 08:26:17;;;;;;;38.15;17.92;;;-0.20;99.90;;;;;;5100512;28;20036;-85
2022/12/09 08:28:46;;;;;;;33.45;16.00;;;-0.10;99.90;;;;;;5083907;28;20512;-83
2022/12/09 08:31:15;;;;;;;34.10;16.35;;;-0.10;99.90;;;;;;5093584;28;20032;-82
2022/12/09 08:33:41;;;;;;;33.85;16.35;;;0.10;99.90;;;;;;5097968;28;20442;-82
2022/12/09 08:36:17;;;;;;;34.97;16.20;;;0.40;99.90;;;;;;5103600;28;20453;-83
2022/12/09 08:38:44;;;;;;;34.13;16.63;;;0.10;99.90;;;;;;5082276;28;20102;-83
2022/12/09 08:41:13;;;;;;;38.88;17.33;;;0.20;99.90;;;;;;5109371;28;20039;-82
2022/12/09 08:43:45;;;;;;;34.03;16.90;;;0.30;99.90;;;;;;5105430;28;20437;-82
2022/12/09 08:46:11;;;;;;;33.70;16.40;;;0.30;99.90;;;;;;5087863;28;20058;-82
2022/12/09 08:48:39;;;;;;;34.75;16.67;;;0.30;99.90;;;;;;5091983;28;20674;-82
2022/12/09 08:51:06;;;;;;;33.55;16.50;;;0.40;99.90;;;;;;5107938;28;20123;-82
2022/12/09 08:53:32;;;;;;;35.25;17.35;;;0.50;99.90;;;;;;5099362;28;20043;-81
2022/12/09 08:55:58;;;;;;;31.15;15.77;;;0.50;99.90;;;;;;5091205;28;20039;-81
2022/12/09 08:58:24;;;;;;;32.08;16.42;;;0.60;99.90;;;;;;5090328;28;20455;-82
2022/12/09 09:00:50;;;;;;;30.50;14.43;;;0.60;99.90;;;;;;5090478;28;20097;-81
2022/12/09 09:03:15;;;;;;;35.00;15.27;;;0.60;99.90;;;;;;5092430;28;20409;-81
2022/12/09 09:05:41;;;;;;;30.02;15.65;;;0.70;99.90;;;;;;5079999;28;20593;-82
2022/12/09 09:08:07;;;;;;;33.72;15.27;;;0.70;99.90;;;;;;5074163;28;20116;-82
2022/12/09 09:10:34;;;;;;;30.55;16.17;;;0.70;99.90;;;;;;5052556;28;20040;-82
2022/12/09 09:13:00;;;;;;;33.05;17.60;;;1.30;99.90;;;;;;5090249;28;20036;-82
2022/12/09 09:15:26;;;;;;;34.70;18.10;;;0.90;99.90;;;;;;5090253;28;20051;-81
2022/12/09 09:17:52;;;;;;;34.47;17.30;;;0.90;99.90;;;;;;5078513;28;20106;-81
2022/12/09 09:20:18;;;;;;;33.72;16.60;;;1.00;99.90;;;;;;5105217;28;20544;-82
2022/12/09 09:22:44;;;;;;;33.30;17.00;;;1.00;99.90;;;;;;5089579;28;20497;-82
2022/12/09 09:25:09;;;;;;;33.60;18.35;;;1.00;99.90;;;;;;5110286;28;20055;-82
2022/12/09 09:27:35;;;;;;;34.30;17.95;;;1.00;99.90;;;;;;5068698;28;20024;-82
2022/12/09 09:30:02;;;;;;;35.75;18.52;;;1.90;99.90;;;;;;5074994;28;20039;-82
2022/12/09 09:32:28;;;;;;;34.70;17.10;;;1.10;99.90;;;;;;5089457;28;20052;-82
2022/12/09 09:34:54;;;;;;;33.85;17.30;;;1.20;99.90;;;;;;5103024;28;20518;-82
2022/12/09 09:37:20;;;;;;;31.25;15.95;;;1.10;99.90;;;;;;5079774;28;20378;-82
2022/12/09 09:39:45;;;;;;;35.78;18.55;;;1.50;99.90;;;;;;5077645;28;20451;-77
2022/12/09 09:42:18;;;;;;;34.90;17.70;;;1.00;99.90;;;;;;5084898;28;20035;-76
2022/12/09 09:44:49;;;;;;;35.78;18.95;;;1.60;99.90;;;;;;5091447;28;20039;-76
2022/12/09 09:47:33;;;;;;;36.63;19.13;;;1.10;99.90;;;;;;5096707;28;20131;-75
2022/12/09 09:50:21;;;;;;;34.58;17.77;;;1.20;99.90;;;;;;5090761;28;20493;-77
2022/12/09 09:52:51;;;;;;;35.65;18.50;;;1.20;99.90;;;;;;5072123;28;20040;-76
2022/12/09 09:55:21;;;;;;;34.92;17.73;;;1.20;99.90;;;;;;5089640;28;20047;-76
2022/12/09 09:58:10;;;;;;;36.22;18.92;;;1.30;99.90;;;;;;5088085;28;20113;-75
2022/12/09 10:01:06;;;;;;;32.40;17.15;;;1.30;99.90;;;;;;5079705;28;20181;-77
2022/12/09 10:04:05;;;;;;;36.10;18.52;;;1.40;99.90;;;;;;5089056;28;20036;-76
2022/12/09 10:07:07;;;;;;;36.90;18.45;;;1.40;99.90;;;;;;5090162;28;20568;-75
2022/12/09 10:10:26;;;;;;;37.75;18.15;;;1.40;99.90;;;;;;5082811;28;20044;-77
2022/12/09 10:13:02;;;;;;;32.70;17.00;;;1.40;99.90;;;;;;5038840;28;20072;-77
2022/12/09 10:15:32;;;;;;;36.38;18.67;;;2.10;99.90;;;;;;5090067;28;20044;-77
2022/12/09 10:18:18;;;;;;;35.67;17.83;;;1.40;99.90;;;;;;5109283;28;20580;-77
2022/12/09 10:20:44;;;;;;;33.45;17.63;;;1.50;99.90;;;;;;5075502;28;20106;-76
2022/12/09 10:23:15;;;;;;;35.33;18.63;;;1.50;99.90;;;;;;5105562;28;20097;-76
2022/12/09 10:25:49;;;;;;;36.60;18.27;;;1.50;99.90;;;;;;5072358;28;20401;-76
2022/12/09 10:28:37;;;;;;;31.30;16.85;;;1.50;99.90;;;;;;5087625;28;20078;-76
2022/12/09 10:31:02;;;;;;;33.78;17.88;;;1.50;99.90;;;;;;5091848;28;20040;-77
2022/12/09 10:33:34;;;;;;;32.53;17.00;;;2.90;99.90;;;;;;5084863;28;20517;-76
2022/12/09 10:36:00;;;;;;;35.17;18.27;;;1.40;99.90;;;;;;5086499;28;20047;-76
2022/12/09 10:38:29;;;;;;;33.15;16.67;;;2.50;99.90;;;;;;5098704;28;20168;-77
2022/12/09 10:41:10;;;;;;;33.42;17.33;;;2.60;99.90;;;;;;5089106;28;20079;-76
2022/12/09 10:43:37;;;;;;;34.63;18.55;;;1.40;99.90;;;;;;5075072;28;20044;-76
2022/12/09 10:46:14;;;;;;;31.90;16.40;;;1.30;99.90;;;;;;5090257;28;20109;-76
2022/12/09 10:49:03;;;;;;;36.95;18.42;;;1.30;99.90;;;;;;5088072;28;20071;-77
2022/12/09 10:51:34;;;;;;;35.08;17.88;;;1.90;99.90;;;;;;5089334;28;20097;-77
2022/12/09 10:54:09;;;;;;;32.45;17.48;;;1.20;99.90;;;;;;5078459;28;20123;-77
2022/12/09 10:56:37;;;;;;;33.15;16.85;;;1.30;99.90;;;;;;5087867;28;20044;-78
2022/12/09 10:59:24;;;;;;;30.23;16.20;;;1.40;99.90;;;;;;5099007;28;20062;-76
2022/12/09 11:01:53;;;;;;;30.77;16.83;;;1.40;99.90;;;;;;5097473;28;20048;-77
2022/12/09 11:04:26;;;;;;;32.72;16.17;;;1.40;99.90;;;;;;5071861;28;20616;-77
2022/12/09 11:06:55;;;;;;;31.50;16.20;;;1.40;99.90;;;;;;5095549;28;20052;-76
2022/12/09 11:09:28;;;;;;;33.15;16.65;;;1.40;99.90;;;;;;5094689;28;20039;-77
2022/12/09 11:11:53;;;;;;;;;;;1.30;99.90;;;;;;5093539;28;20044;-77
2022/12/09 11:14:23;;;;;;;30.77;15.65;;;1.30;99.90;;;;;;5100093;28;19915;-77
2022/12/09 11:17:14;;;;;;;32.80;16.55;;;1.30;99.90;;;;;;5108715;28;20036;-77
2022/12/09 11:19:42;;;;;;;31.13;15.85;;;2.20;99.90;;;;;;5092111;28;20054;-77
2022/12/09 11:22:27;;;;;;;33.05;17.55;;;1.20;99.90;;;;;;5089484;28;20180;-77
2022/12/09 11:24:54;;;;;;;31.73;16.45;;;1.20;99.90;;;;;;5096519;28;20043;-78
2022/12/09 11:27:32;;;;;;;34.45;16.85;;;1.20;99.90;;;;;;5095033;28;20638;-76
2022/12/09 11:30:16;;;;;;;32.28;17.10;;;1.20;99.90;;;;;;5089126;28;20497;-77
2022/12/09 11:33:12;;;;;;;34.10;16.92;;;1.20;99.90;;;;;;5088355;28;20083;-76
2022/12/09 11:36:01;;;;;;;32.20;16.00;;;1.20;99.90;;;;;;5087973;28;20496;-78
2022/12/09 11:38:40;;;;;;;32.60;16.92;;;1.20;99.90;;;;;;5105950;28;20165;-77
2022/12/09 11:42:12;;;;;;;33.85;16.52;;;3.00;99.90;;;;;;5108288;28;20039;-78
2022/12/09 11:44:12;;;;;;;35.40;17.48;;;1.20;99.90;;;;;;5097962;28;20059;-75
2022/12/09 11:46:38;;;;;;;36.00;17.25;;;1.30;99.90;;;;;;5071097;28;20109;-77
2022/12/09 11:49:15;;;;;;;34.00;16.30;;;1.20;99.90;;;;;;5065285;28;20048;-78
2022/12/09 11:52:06;;;;;;;32.78;16.42;;;1.30;99.90;;;;;;5102361;28;20039;-76
2022/12/09 11:54:43;;;;;;;33.28;16.77;;;1.30;99.90;;;;;;5098182;28;20520;-77
2022/12/09 11:57:30;;;;;;;35.65;17.83;;;1.20;99.90;;;;;;5071442;28;20400;-77
2022/12/09 12:00:00;;;;;;;33.75;17.33;;;1.30;99.90;;;;;;5074800;28;20508;-77
2022/12/09 12:02:42;;;;;;;35.60;17.52;;;2.30;99.90;;;;;;5092732;28;20032;-77
2022/12/09 12:05:23;;;;;;;33.85;17.10;;;1.20;99.90;;;;;;5083319;28;20512;-77
2022/12/09 12:08:17;;;;;;;40.15;19.33;;;1.30;99.90;;;;;;5105173;28;20068;-77
2022/12/09 12:10:55;;;;;;;34.20;16.42;;;1.30;99.90;;;;;;5091654;28;20097;-75
2022/12/09 12:13:41;;;;;;;50.42;19.33;;;1.30;99.90;;;;;;5104825;28;20057;-76
2022/12/09 12:16:48;;;;;;;40.05;18.52;;;1.30;99.90;;;;;;5089537;28;20040;-76
2022/12/09 12:19:30;;;;;;;35.55;18.17;;;1.30;99.90;;;;;;5095494;28;20117;-77
2022/12/09 12:22:27;;;;;;;37.10;17.95;;;1.20;99.90;;;;;;5092180;28;20036;-76
2022/12/09 12:25:27;;;;;;;39.13;19.42;;;1.20;99.90;;;;;;5088901;28;20111;-76
2022/12/09 12:28:01;;;;;;;39.65;18.92;;;1.20;99.90;;;;;;5099174;28;20110;-77
2022/12/09 12:30:51;;;;;;;38.90;18.85;;;1.20;99.90;;;;;;5090249;28;20139;-76
2022/12/09 12:33:17;;;;;;;38.97;18.73;;;1.20;99.90;;;;;;5093432;28;20100;-77
2022/12/09 12:35:50;;;;;;;36.75;19.27;;;0.50;99.90;;;;;;5096782;28;20052;-76
2022/12/09 12:38:18;;;;;;;;;;;1.20;99.90;;;;;;5107308;28;20039;-76
2022/12/09 12:40:50;;;;;;;35.95;18.02;;;1.20;99.90;;;;;;5081179;28;20209;-77
2022/12/09 12:46:48;;;;;;;38.22;18.90;;;1.20;99.90;;;;;;5090881;28;20069;-78
2022/12/09 12:49:36;;;;;;;41.72;20.10;;;1.60;99.90;;;;;;5091453;28;20031;-76
2022/12/09 12:52:28;;;;;;;37.08;18.48;;;1.30;99.90;;;;;;5104015;28;20378;-76
2022/12/09 12:55:03;;;;;;;37.08;18.70;;;1.30;99.90;;;;;;5066298;28;20060;-76
2022/12/09 12:58:00;;;;;;;41.10;19.80;;;1.30;99.90;;;;;;5079297;28;20189;-76
2022/12/09 13:00:49;;;;;;;37.30;18.30;;;1.30;99.90;;;;;;5093791;28;20273;-77